Home > Products > Valid Products > TAF

000
FTUS44 KMAF 022324
TAFMAF
TAF
KMAF 022324Z 0300/0324 16006KT P6SM SKC=



000
FTUS44 KMAF 022324
TAFMAF
TAF
KMAF 022324Z 0300/0324 16006KT P6SM SKC=



000
FTUS44 KMAF 021720
TAFMAF
TAF
KMAF 021720Z 0218/0318 01010KT P6SM FEW080
     FM030000 12006KT P6SM SKC=



000
FTUS44 KMAF 021125
TAFMAF
TAF
KMAF 021125Z 0212/0312 01010KT P6SM BKN050 BKN080
     FM021900 03006KT P6SM SCT070=



000
FTUS44 KMAF 020523
TAFMAF
TAF
KMAF 020523Z 0206/0306 02014KT P6SM OVC045=



000
FTUS44 KMAF 012320
TAFMAF
TAF
KMAF 012320Z 0200/0224 04011KT P6SM OVC040=



000
FTUS44 KMAF 012017 AAD
TAFMAF
TAF AMD
KMAF 012017Z 0120/0218 04013KT P6SM OVC040
     FM020400 02007KT P6SM SCT040 BKN070=



000
FTUS44 KMAF 012017 AAD
TAFMAF
TAF AMD
KMAF 012017Z 0120/0218 04013KT P6SM OVC040
     FM020400 02007KT P6SM SCT040 BKN070=



000
FTUS44 KMAF 011720
TAFMAF
TAF
KMAF 011720Z 0118/0218 04014G24KT P6SM OVC035
     FM012200 03010KT P6SM BKN040=



000
FTUS44 KMAF 011720
TAFMAF
TAF
KMAF 011720Z 0118/0218 04014G24KT P6SM OVC035
     FM012200 03010KT P6SM BKN040=



000
FTUS44 KMAF 011123
TAFMAF
TAF
KMAF 011123Z 0112/0212 05020G30KT P6SM OVC035
      TEMPO 0112/0116 OVC025
     FM012000 04014G22KT P6SM OVC035=



000
FTUS44 KMAF 010523
TAFMAF
TAF
KMAF 010523Z 0106/0206 08015G23KT P6SM SCT120
     FM010900 07023G30KT P6SM SCT120
     FM011200 05018G25KT P6SM OVC035
      TEMPO 0112/0116 OVC025=



000
FTUS44 KMAF 010237 AAA
TAFMAF
TAF AMD
KMAF 010237Z 0103/0124 09015G23KT P6SM SCT120
     FM011000 07020G30KT P6SM OVC015
     FM011800 03017G25KT P6SM OVC030=



000
FTUS44 KMAF 010237 AAA
TAFMAF
TAF AMD
KMAF 010237Z 0103/0124 09015G23KT P6SM SCT120
     FM011000 07020G30KT P6SM OVC015
     FM011800 03017G25KT P6SM OVC030=



000
FTUS44 KMAF 302321
TAFMAF
TAF
KMAF 302321Z 0100/0124 20010KT P6SM FEW120
     FM010300 10009KT P6SM SCT120
     FM011000 07020G30KT P6SM OVC015
     FM011800 03017G25KT P6SM OVC030=



000
FTUS44 KMAF 301727
TAFMAF
TAF
KMAF 301727Z 3018/0118 21010KT P6SM SKC
     FM010200 11009KT P6SM SKC
     FM010900 06022G32KT P6SM OVC010=



000
FTUS44 KMAF 301727
TAFMAF
TAF
KMAF 301727Z 3018/0118 21010KT P6SM SKC
     FM010200 11009KT P6SM SKC
     FM010900 06022G32KT P6SM OVC010=



000
FTUS44 KMAF 301120
TAFMAF
TAF
KMAF 301120Z 3012/0112 06007KT P6SM SKC
     FM301800 25010KT P6SM SKC
     FM010200 11008KT P6SM SKC=



000
FTUS44 KMAF 301120
TAFMAF
TAF
KMAF 301120Z 3012/0112 06007KT P6SM SKC
     FM301800 25010KT P6SM SKC
     FM010200 11008KT P6SM SKC=



000
FTUS44 KMAF 300821 AAA
TAFMAF
TAF AMD
KMAF 300821Z 3008/0106 06007KT P6SM SKC
     FM301800 26010KT P6SM SKC
     FM010200 11008KT P6SM SKC=



000
FTUS44 KMAF 300520
TAFMAF
TAF
KMAF 300520Z 3006/0106 26010KT P6SM SKC
     FM010200 11008KT P6SM SKC=



    US Dept of Commerce
    National Oceanic and Atmospheric Administration
    National Weather Service
    1325 East West Highway
    Silver Spring, MD 20910
    Page Author: NWS Internet Services Team
Disclaimer
Information Quality
Credits
Glossary
Privacy Policy
Freedom of Information Act (FOIA)
About Us
Career Opportunities